Time;durP1;ratioP1;P1;durP2;ratioP2;P2;SDS_P1;SDS_P2;PMS_P1;PMS_P2;Temp;Humidity;BMP_temperature;BMP_pressure;BME280_temperature;BME280_humidity;BME280_pressure;Samples;Min_cycle;Max_cycle;Signal;HPM_P1;HPM_P2
2022/12/26 00:01:23;;;;;;;36.65;24.92;;;7.30;99.90;;;;;;5055673;28;20033;-66
2022/12/26 00:03:49;;;;;;;35.50;24.10;;;7.30;99.90;;;;;;5055238;28;20036;-66
2022/12/26 00:06:21;;;;;;;35.78;25.17;;;7.30;99.90;;;;;;5055826;28;20500;-67
2022/12/26 00:08:47;;;;;;;;;;;7.30;99.90;;;;;;5055543;28;20029;-66
2022/12/26 00:11:13;;;;;;;35.47;24.15;;;7.30;99.90;;;;;;5055614;28;20341;-65
2022/12/26 00:13:39;;;;;;;38.78;23.95;;;7.30;99.90;;;;;;5054856;28;20029;-66
2022/12/26 00:16:14;;;;;;;36.05;23.58;;;7.30;99.90;;;;;;5055482;28;20020;-66
2022/12/26 00:18:39;;;;;;;35.53;23.55;;;7.20;99.90;;;;;;5054983;28;20136;-66
2022/12/26 00:21:07;;;;;;;34.63;22.80;;;7.20;99.90;;;;;;5055447;28;20055;-66
2022/12/26 00:23:34;;;;;;;37.22;23.23;;;7.20;99.90;;;;;;5054899;28;20373;-66
2022/12/26 00:26:08;;;;;;;37.60;23.30;;;7.20;99.90;;;;;;5055227;28;20029;-66
2022/12/26 00:28:34;;;;;;;40.58;24.48;;;7.20;99.90;;;;;;5054641;28;20032;-66
2022/12/26 00:31:10;;;;;;;35.75;23.45;;;7.20;99.90;;;;;;5055267;28;20037;-66
2022/12/26 00:33:37;;;;;;;35.70;23.50;;;7.20;99.90;;;;;;5054587;28;20025;-66
2022/12/26 00:36:09;;;;;;;37.63;24.00;;;7.20;99.90;;;;;;5054793;28;20056;-66
2022/12/26 00:38:36;;;;;;;37.45;23.05;;;7.20;99.90;;;;;;5052429;28;20057;-66
2022/12/26 00:41:03;;;;;;;37.83;23.63;;;7.20;99.90;;;;;;5054597;28;20029;-66
2022/12/26 00:43:29;;;;;;;38.47;23.20;;;7.20;99.90;;;;;;5054815;28;20033;-67
2022/12/26 00:45:54;;;;;;;35.13;24.48;;;7.10;99.90;;;;;;5054541;28;20032;-66
2022/12/26 00:48:20;;;;;;;34.95;22.38;;;7.10;99.90;;;;;;5055051;28;20069;-66
2022/12/26 00:50:45;;;;;;;36.17;24.02;;;7.10;99.90;;;;;;5054443;28;20388;-67
2022/12/26 00:53:11;;;;;;;36.58;23.35;;;7.10;99.90;;;;;;5054445;28;20102;-66
2022/12/26 00:55:37;;;;;;;34.10;22.75;;;7.10;99.90;;;;;;5054261;28;20036;-66
2022/12/26 00:58:03;;;;;;;31.38;21.85;;;7.10;99.90;;;;;;5053705;28;20436;-66
2022/12/26 01:00:28;;;;;;;35.47;23.25;;;7.10;99.90;;;;;;5054518;28;20040;-66
2022/12/26 01:02:54;;;;;;;35.90;23.30;;;7.00;99.90;;;;;;5054084;28;20029;-66
2022/12/26 01:05:19;;;;;;;35.75;22.95;;;7.00;99.90;;;;;;5054446;28;20027;-66
2022/12/26 01:07:45;;;;;;;37.15;23.80;;;7.00;99.90;;;;;;5053813;28;20091;-66
2022/12/26 01:10:12;;;;;;;40.08;27.15;;;7.00;99.90;;;;;;5054372;28;20029;-66
2022/12/26 01:12:38;;;;;;;39.10;26.40;;;7.00;99.90;;;;;;5053964;28;20035;-67
2022/12/26 01:15:05;;;;;;;39.00;25.73;;;7.00;99.90;;;;;;5054353;28;20104;-66
2022/12/26 01:17:32;;;;;;;41.08;26.67;;;7.00;99.90;;;;;;5054396;28;20040;-67
2022/12/26 01:19:58;;;;;;;45.78;28.23;;;7.10;99.90;;;;;;5054154;28;20025;-67
2022/12/26 01:22:26;;;;;;;40.95;27.67;;;7.10;99.90;;;;;;5052724;28;20102;-67
2022/12/26 01:24:55;;;;;;;42.20;27.00;;;7.10;99.90;;;;;;5053444;28;20421;-67
2022/12/26 01:27:22;;;;;;;47.50;28.10;;;7.10;99.90;;;;;;5054003;28;20036;-67
2022/12/26 01:29:47;;;;;;;46.80;28.25;;;7.10;99.90;;;;;;5053612;28;20024;-67
2022/12/26 01:32:14;;;;;;;54.13;29.52;;;7.10;99.90;;;;;;5053922;28;20380;-67
2022/12/26 01:34:39;;;;;;;53.45;32.25;;;7.10;99.90;;;;;;5053533;28;20032;-67
2022/12/26 01:37:05;;;;;;;61.92;33.85;;;7.10;99.90;;;;;;5053818;28;20032;-67
2022/12/26 01:39:31;;;;;;;61.60;34.80;;;7.10;99.90;;;;;;5053899;28;20028;-67
2022/12/26 01:41:56;;;;;;;64.82;35.85;;;7.10;99.90;;;;;;5053058;28;20032;-67
2022/12/26 01:44:50;;;;;;;67.32;35.78;;;7.10;99.90;;;;;;5053834;28;20078;-67
2022/12/26 01:47:16;;;;;;;69.07;36.10;;;7.20;99.90;;;;;;5053749;28;20478;-67
2022/12/26 01:49:45;;;;;;;75.78;36.35;;;7.20;99.90;;;;;;5053505;28;20412;-67
2022/12/26 01:52:20;;;;;;;88.25;37.78;;;7.20;99.90;;;;;;5052442;28;20116;-67
2022/12/26 01:54:49;;;;;;;102.53;36.20;;;7.20;99.90;;;;;;5053025;28;20496;-66
2022/12/26 01:57:28;;;;;;;70.15;35.42;;;7.20;99.90;;;;;;5053141;28;20036;-66
2022/12/26 01:59:56;;;;;;;70.22;36.08;;;7.20;99.90;;;;;;5052802;28;20107;-67
2022/12/26 02:02:25;;;;;;;68.85;35.88;;;7.20;99.90;;;;;;5053086;28;20036;-67
2022/12/26 02:07:42;;;;;;;60.65;34.53;;;7.10;99.90;;;;;;5052744;28;20401;-70
2022/12/26 02:10:14;;;;;;;60.92;33.10;;;7.10;99.90;;;;;;5053721;28;20021;-67
2022/12/26 02:12:40;;;;;;;58.97;33.88;;;7.10;99.90;;;;;;5052911;28;20079;-67
2022/12/26 02:15:10;;;;;;;59.20;33.45;;;7.10;99.90;;;;;;5053124;28;20029;-67
2022/12/26 02:17:37;;;;;;;57.83;32.65;;;7.20;99.90;;;;;;5052869;28;20389;-67
2022/12/26 02:20:17;;;;;;;61.53;32.97;;;7.10;99.90;;;;;;5051947;28;20031;-67
2022/12/26 02:23:01;;;;;;;70.07;32.28;;;7.10;99.90;;;;;;5052836;28;20119;-67
2022/12/26 02:25:48;;;;;;;53.85;32.08;;;7.20;99.90;;;;;;5053128;28;20028;-67
2022/12/26 02:28:52;;;;;;;55.67;33.78;;;7.10;99.90;;;;;;5052425;28;20021;-67
2022/12/26 02:31:22;;;;;;;59.88;32.67;;;7.10;99.90;;;;;;5051813;28;20081;-67
2022/12/26 02:33:50;;;;;;;56.05;32.10;;;7.10;99.90;;;;;;5052766;28;20033;-67
2022/12/26 02:36:54;;;;;;;65.70;31.98;;;7.00;99.90;;;;;;5052881;28;20126;-67
2022/12/26 02:39:40;;;;;;;65.40;32.95;;;7.00;99.90;;;;;;5052774;28;20061;-67
2022/12/26 02:42:26;;;;;;;59.70;32.92;;;7.10;99.90;;;;;;5052806;28;20036;-67
2022/12/26 02:48:02;;;;;;;56.72;32.05;;;7.10;99.90;;;;;;5052106;28;20067;-67
2022/12/26 03:14:51;;;;;;;57.08;31.33;;;6.90;99.90;;;;;;5052082;28;20082;-67
2022/12/26 03:17:53;;;;;;;62.80;33.60;;;6.90;99.90;;;;;;5052194;28;20021;-67
2022/12/26 03:20:32;;;;;;;67.53;32.08;;;6.90;99.90;;;;;;5053885;28;20386;-67
2022/12/26 03:23:07;;;;;;;72.00;31.17;;;6.90;99.90;;;;;;5056080;28;20039;-67
2022/12/26 03:28:25;;;;;;;87.57;32.45;;;6.90;99.90;;;;;;5056268;28;20043;-67
2022/12/26 03:30:51;;;;;;;64.30;33.47;;;6.90;99.90;;;;;;5056175;28;20111;-66
2022/12/26 03:36:05;;;;;;;74.45;34.25;;;6.80;99.90;;;;;;5055606;28;20039;-66
2022/12/26 03:38:50;;;;;;;59.00;33.33;;;6.80;99.90;;;;;;5055742;28;20486;-66
2022/12/26 04:19:53;;;;;;;;;;;6.50;99.90;;;;;;5055675;28;20102;-67
2022/12/26 04:45:18;;;;;;;68.40;26.95;;;6.70;99.90;;;;;;5055019;28;20174;-67
2022/12/26 04:50:10;;;;;;;74.30;26.17;;;6.70;99.90;;;;;;5054989;28;20429;-67
2022/12/26 04:50:30;;;;;;;88.90;28.92;;;6.70;99.90;;;;;;5054418;28;20037;-67
2022/12/26 04:52:58;;;;;;;86.65;28.63;;;6.60;99.90;;;;;;5054541;28;20037;-67
2022/12/26 04:55:29;;;;;;;85.15;29.15;;;6.70;99.90;;;;;;5054908;28;20108;-67
2022/12/26 04:57:56;;;;;;;92.72;29.50;;;6.70;99.90;;;;;;5054370;28;20037;-67
2022/12/26 05:00:26;;;;;;;75.40;30.20;;;6.60;99.90;;;;;;5054521;28;20037;-66
2022/12/26 05:09:33;;;;;;;85.97;31.67;;;6.70;99.90;;;;;;5054618;28;20043;-67
2022/12/26 05:11:25;;;;;;;123.65;30.02;;;6.70;99.90;;;;;;5054443;28;20043;-67
2022/12/26 05:13:52;;;;;;;94.95;30.20;;;6.70;99.90;;;;;;5053959;28;20095;-68
2022/12/26 05:30:05;;;;;;;70.20;30.63;;;6.70;99.90;;;;;;5053493;28;20385;-67
2022/12/26 05:35:15;;;;;;;102.20;31.58;;;6.70;99.90;;;;;;5053330;28;20032;-67
2022/12/26 05:37:40;;;;;;;66.43;30.60;;;6.70;99.90;;;;;;5053958;28;20041;-67
2022/12/26 05:40:07;;;;;;;64.65;31.55;;;6.70;99.90;;;;;;5053310;28;20040;-67
2022/12/26 05:42:32;;;;;;;62.88;29.40;;;6.80;99.90;;;;;;5053230;28;20036;-67
2022/12/26 05:44:58;;;;;;;79.25;28.25;;;6.80;99.90;;;;;;5053076;28;20029;-67
2022/12/26 05:47:24;;;;;;;99.70;27.50;;;6.80;99.90;;;;;;5053745;28;20051;-67
2022/12/26 05:49:49;;;;;;;99.88;30.27;;;6.80;99.90;;;;;;5053668;28;20107;-67
2022/12/26 05:52:15;;;;;;;68.32;30.67;;;6.80;99.90;;;;;;5053567;28;20032;-67
2022/12/26 05:54:41;;;;;;;66.88;30.23;;;6.80;99.90;;;;;;5053918;28;20025;-67
2022/12/26 05:57:06;;;;;;;73.40;27.08;;;6.70;99.90;;;;;;5053243;28;20462;-67
2022/12/26 05:59:32;;;;;;;61.95;27.98;;;6.70;99.90;;;;;;5053235;28;20385;-67
2022/12/26 06:01:57;;;;;;;79.20;27.23;;;6.70;99.90;;;;;;5053310;28;20060;-67
2022/12/26 06:04:23;;;;;;;51.03;27.02;;;6.80;99.90;;;;;;5053508;28;20025;-67
2022/12/26 06:06:49;;;;;;;77.60;29.60;;;6.70;99.90;;;;;;5053295;28;20087;-67
2022/12/26 06:09:14;;;;;;;51.85;27.50;;;6.70;99.90;;;;;;5052855;28;20029;-67
2022/12/26 06:11:40;;;;;;;55.38;26.17;;;6.70;99.90;;;;;;5052552;28;20103;-67
2022/12/26 06:14:06;;;;;;;68.70;27.35;;;6.70;99.90;;;;;;5052751;28;20025;-67
2022/12/26 06:16:31;;;;;;;83.82;27.38;;;6.60;99.90;;;;;;5051910;28;20381;-67
2022/12/26 06:18:57;;;;;;;56.10;27.98;;;6.60;99.90;;;;;;5052756;28;20082;-67
2022/12/26 06:21:23;;;;;;;63.55;26.75;;;6.60;99.90;;;;;;5053059;28;20119;-66
2022/12/26 06:23:49;;;;;;;57.00;27.98;;;6.50;99.90;;;;;;5053066;28;20108;-67
2022/12/26 06:26:15;;;;;;;53.17;28.00;;;6.50;99.90;;;;;;5052601;28;20596;-67
2022/12/26 06:28:42;;;;;;;49.72;28.00;;;6.50;99.90;;;;;;5053062;28;20025;-67
2022/12/26 06:31:28;;;;;;;51.53;27.80;;;6.60;99.90;;;;;;5052065;28;20454;-66
2022/12/26 06:34:00;;;;;;;58.42;27.33;;;6.60;99.90;;;;;;5052803;28;20029;-66
2022/12/26 06:36:27;;;;;;;61.08;25.90;;;6.60;99.90;;;;;;5052896;28;20074;-67
2022/12/26 06:38:53;;;;;;;53.80;26.42;;;6.50;99.90;;;;;;5053033;28;20056;-67
2022/12/26 06:41:24;;;;;;;50.60;26.75;;;6.50;99.90;;;;;;5050895;28;20119;-67
2022/12/26 06:43:50;;;;;;;74.38;26.90;;;6.60;99.90;;;;;;5052472;28;20470;-65
2022/12/26 06:46:19;;;;;;;64.68;27.85;;;6.50;99.90;;;;;;5052194;28;20039;-65
2022/12/26 06:48:45;;;;;;;52.17;26.45;;;6.50;99.90;;;;;;5052530;28;20029;-66
2022/12/26 06:51:20;;;;;;;47.85;27.65;;;6.50;99.90;;;;;;5050855;28;20385;-65
2022/12/26 06:53:48;;;;;;;59.67;26.35;;;6.60;99.90;;;;;;5052287;28;20025;-66
2022/12/26 06:56:16;;;;;;;55.22;28.98;;;6.60;99.90;;;;;;5051158;28;20025;-67
2022/12/26 06:58:42;;;;;;;60.67;27.40;;;6.50;99.90;;;;;;5052418;28;20063;-65
2022/12/26 07:01:10;;;;;;;47.92;27.23;;;6.50;99.90;;;;;;5052631;28;20053;-65
2022/12/26 07:03:36;;;;;;;63.63;26.15;;;6.50;99.90;;;;;;5052237;28;20068;-65
2022/12/26 07:06:06;;;;;;;70.70;26.20;;;6.50;99.90;;;;;;5051893;28;20055;-65
2022/12/26 07:08:32;;;;;;;53.72;27.63;;;6.60;99.90;;;;;;5052290;28;20045;-66
2022/12/26 07:10:58;;;;;;;51.15;28.23;;;6.50;99.90;;;;;;5052359;28;20033;-67
2022/12/26 07:13:24;;;;;;;54.25;27.42;;;6.60;99.90;;;;;;5052276;28;20031;-66
2022/12/26 07:15:49;;;;;;;75.70;27.27;;;6.60;99.90;;;;;;5052227;28;20029;-66
2022/12/26 07:18:15;;;;;;;107.65;28.92;;;6.60;99.90;;;;;;5051863;28;20111;-66
2022/12/26 07:20:40;;;;;;;79.40;27.85;;;6.50;99.90;;;;;;5052155;28;20028;-66
2022/12/26 07:23:06;;;;;;;55.72;25.65;;;6.50;99.90;;;;;;5051957;28;20033;-65
2022/12/26 07:25:32;;;;;;;48.40;23.92;;;6.50;99.90;;;;;;5052345;28;20024;-67
2022/12/26 07:27:59;;;;;;;41.78;23.98;;;6.60;99.90;;;;;;5052281;28;20029;-66
2022/12/26 07:30:25;;;;;;;39.80;22.75;;;6.60;99.90;;;;;;5052175;28;20064;-67
2022/12/26 07:32:50;;;;;;;45.42;22.67;;;6.50;99.90;;;;;;5051997;28;20450;-67
2022/12/26 07:35:16;;;;;;;42.90;23.50;;;6.50;99.90;;;;;;5052095;28;20036;-67
2022/12/26 07:37:41;;;;;;;39.40;23.23;;;6.40;99.90;;;;;;5052169;28;20045;-67
2022/12/26 07:40:08;;;;;;;36.70;21.23;;;6.40;99.90;;;;;;5051696;28;20021;-68
2022/12/26 07:42:33;;;;;;;32.63;22.52;;;6.40;99.90;;;;;;5051918;28;20043;-67
2022/12/26 07:44:59;;;;;;;31.95;21.98;;;6.40;99.90;;;;;;5050889;28;20029;-67
2022/12/26 07:47:25;;;;;;;34.33;23.48;;;6.40;99.90;;;;;;5051675;28;20061;-67
2022/12/26 07:49:50;;;;;;;30.95;22.83;;;6.40;99.90;;;;;;5052137;28;20452;-66
2022/12/26 07:52:17;;;;;;;39.10;23.20;;;6.40;99.90;;;;;;5052101;28;20087;-67
2022/12/26 07:54:42;;;;;;;37.40;24.23;;;6.50;99.90;;;;;;5050808;28;20038;-65
2022/12/26 07:57:08;;;;;;;36.33;24.77;;;6.50;99.90;;;;;;5052145;28;20047;-67
2022/12/26 07:59:34;;;;;;;39.00;25.02;;;6.50;99.90;;;;;;5052068;28;20033;-66
2022/12/26 08:02:03;;;;;;;41.13;27.02;;;6.50;99.90;;;;;;5051803;28;20087;-66
2022/12/26 08:04:30;;;;;;;39.35;25.00;;;6.50;99.90;;;;;;5051880;28;20124;-66
2022/12/26 08:06:56;;;;;;;46.47;27.13;;;6.60;99.90;;;;;;5054355;28;20041;-67
2022/12/26 08:09:21;;;;;;;51.25;26.58;;;6.60;99.90;;;;;;5054834;28;20021;-66
2022/12/26 08:11:47;;;;;;;38.05;25.63;;;6.60;99.90;;;;;;5055777;28;20072;-66
2022/12/26 08:14:15;;;;;;;42.47;25.95;;;6.60;99.90;;;;;;5055167;28;20032;-66
2022/12/26 08:16:41;;;;;;;36.13;25.65;;;6.70;99.90;;;;;;5055496;28;20079;-66
2022/12/26 08:19:07;;;;;;;35.97;24.85;;;6.70;99.90;;;;;;5054732;28;20111;-67
2022/12/26 08:21:33;;;;;;;45.35;25.20;;;6.60;99.90;;;;;;5055296;28;20121;-66
2022/12/26 08:23:58;;;;;;;37.72;25.40;;;6.70;99.90;;;;;;5055786;28;20025;-66
2022/12/26 08:26:24;;;;;;;38.47;24.65;;;6.70;99.90;;;;;;5054477;28;20037;-66
2022/12/26 08:28:50;;;;;;;52.38;25.00;;;6.60;99.90;;;;;;5055107;28;20154;-66
2022/12/26 08:31:17;;;;;;;44.53;24.70;;;6.60;99.90;;;;;;5053551;28;20108;-66
2022/12/26 08:33:43;;;;;;;41.83;26.02;;;6.60;99.90;;;;;;5055100;28;20025;-67
2022/12/26 08:36:11;;;;;;;39.42;24.90;;;6.60;99.90;;;;;;5054695;28;20033;-66
2022/12/26 08:38:39;;;;;;;36.78;25.38;;;6.70;99.90;;;;;;5054493;28;20057;-65
2022/12/26 08:41:05;;;;;;;37.75;24.63;;;6.70;99.90;;;;;;5054756;28;20036;-66
2022/12/26 08:43:31;;;;;;;36.47;25.02;;;6.70;99.90;;;;;;5055405;28;20116;-66
2022/12/26 08:46:08;;;;;;;31.98;21.83;;;6.70;99.90;;;;;;5054731;28;20021;-66
2022/12/26 08:48:35;;;;;;;29.77;22.38;;;6.70;99.90;;;;;;5054921;28;20040;-66
2022/12/26 08:51:07;;;;;;;30.90;22.45;;;6.70;99.90;;;;;;5054576;28;20051;-65
2022/12/26 08:53:34;;;;;;;40.25;23.50;;;6.70;99.90;;;;;;5054779;28;20029;-66
2022/12/26 08:56:01;;;;;;;42.13;22.35;;;6.80;99.90;;;;;;5054626;28;20135;-66
2022/12/26 08:58:27;;;;;;;33.20;23.00;;;6.70;99.90;;;;;;5053971;28;20375;-66
2022/12/26 09:00:53;;;;;;;31.90;22.98;;;6.80;99.90;;;;;;5054378;28;20036;-66
2022/12/26 09:03:19;;;;;;;39.33;24.58;;;6.80;99.90;;;;;;5054103;28;20082;-66
2022/12/26 09:05:44;;;;;;;39.55;25.80;;;6.80;99.90;;;;;;5054256;28;20033;-65
2022/12/26 09:08:10;;;;;;;42.88;27.02;;;6.90;99.90;;;;;;5054218;28;20021;-66
2022/12/26 09:10:36;;;;;;;42.92;26.75;;;6.90;99.90;;;;;;5054431;28;20025;-66
2022/12/26 09:13:02;;;;;;;38.20;24.48;;;6.90;99.90;;;;;;5054612;28;20021;-66
2022/12/26 09:15:28;;;;;;;41.00;26.35;;;6.90;99.90;;;;;;5053634;28;20056;-65
2022/12/26 09:17:53;;;;;;;45.92;25.95;;;7.00;99.90;;;;;;5053093;28;20029;-67
2022/12/26 09:20:19;;;;;;;39.25;25.50;;;7.00;99.90;;;;;;5053812;28;20037;-67
2022/12/26 09:22:50;;;;;;;37.38;25.58;;;7.00;99.90;;;;;;5053867;28;20029;-67
2022/12/26 09:25:18;;;;;;;41.83;26.05;;;7.10;99.90;;;;;;5053865;28;20033;-67
2022/12/26 09:27:44;;;;;;;42.70;25.77;;;7.00;99.90;;;;;;5054170;28;20021;-66
2022/12/26 09:30:09;;;;;;;47.13;27.48;;;7.10;99.90;;;;;;5053918;28;20032;-67
2022/12/26 09:32:35;;;;;;;44.00;26.50;;;7.10;99.90;;;;;;5053832;28;20052;-66
2022/12/26 09:35:02;;;;;;;40.13;25.38;;;7.00;99.90;;;;;;5053684;28;20086;-66
2022/12/26 09:37:27;;;;;;;37.45;23.95;;;7.10;99.90;;;;;;5053464;28;20522;-66
2022/12/26 09:39:53;;;;;;;39.78;24.52;;;7.10;99.90;;;;;;5053915;28;20028;-66
2022/12/26 09:42:39;;;;;;;43.03;25.23;;;7.10;99.90;;;;;;5053422;28;20370;-66
2022/12/26 09:45:24;;;;;;;39.65;26.27;;;7.10;99.90;;;;;;5053444;28;20029;-66
2022/12/26 09:48:08;;;;;;;43.65;26.35;;;7.20;99.90;;;;;;5053776;28;20040;-66
2022/12/26 09:50:37;;;;;;;43.22;25.58;;;7.20;99.90;;;;;;5053370;28;20115;-66
2022/12/26 09:53:11;;;;;;;37.20;23.90;;;7.20;99.90;;;;;;5053635;28;20104;-66
2022/12/26 09:55:47;;;;;;;37.47;23.10;;;7.20;99.90;;;;;;5053593;28;20474;-66
2022/12/26 09:58:30;;;;;;;38.67;23.70;;;7.30;99.90;;;;;;5053174;28;20028;-67
2022/12/26 10:01:08;;;;;;;38.03;24.05;;;7.20;99.90;;;;;;5053143;28;20087;-65
2022/12/26 10:03:42;;;;;;;37.97;21.38;;;7.20;99.90;;;;;;5052929;28;20029;-66
2022/12/26 10:06:19;;;;;;;33.72;21.67;;;7.30;99.90;;;;;;5053670;28;20039;-66
2022/12/26 10:08:56;;;;;;;33.92;22.10;;;7.30;99.90;;;;;;5053313;28;20025;-66
2022/12/26 10:11:53;;;;;;;32.13;21.77;;;7.30;99.90;;;;;;5053256;28;20579;-66
2022/12/26 10:14:43;;;;;;;32.10;21.58;;;7.20;99.90;;;;;;5052980;28;20108;-66
2022/12/26 10:17:26;;;;;;;32.63;22.42;;;7.30;99.90;;;;;;5053122;28;20107;-66
2022/12/26 10:20:04;;;;;;;32.00;22.48;;;7.40;99.90;;;;;;5053228;28;20048;-65
2022/12/26 10:22:42;;;;;;;36.00;22.85;;;7.50;99.90;;;;;;5052607;28;20065;-66
2022/12/26 10:25:21;;;;;;;30.88;21.80;;;7.50;99.90;;;;;;5053026;28;20031;-66
2022/12/26 10:27:49;;;;;;;32.50;21.92;;;7.60;99.90;;;;;;5053170;28;20116;-67
2022/12/26 10:30:26;;;;;;;31.33;22.38;;;7.60;99.90;;;;;;5052674;28;20063;-67
2022/12/26 10:33:00;;;;;;;30.75;21.35;;;7.70;99.90;;;;;;5052500;28;20071;-67
2022/12/26 10:35:43;;;;;;;30.80;20.83;;;7.70;99.90;;;;;;5052168;28;20021;-65
2022/12/26 10:38:31;;;;;;;31.02;21.35;;;7.80;99.90;;;;;;5052768;28;20118;-67
2022/12/26 10:41:04;;;;;;;28.42;20.13;;;7.80;99.90;;;;;;5052708;28;20036;-65
2022/12/26 10:43:33;;;;;;;28.55;20.27;;;8.00;99.90;;;;;;5052409;28;20040;-65
2022/12/26 10:46:16;;;;;;;27.35;20.77;;;8.00;99.90;;;;;;5052436;28;20032;-66
2022/12/26 10:48:43;;;;;;;27.00;20.73;;;8.00;99.90;;;;;;5052852;28;20056;-66
2022/12/26 10:51:09;;;;;;;26.67;19.90;;;8.10;99.90;;;;;;5052614;28;20094;-66
2022/12/26 10:53:39;;;;;;;31.85;20.65;;;8.10;99.90;;;;;;5052216;28;20779;-66
2022/12/26 10:56:05;;;;;;;29.63;21.17;;;8.20;99.90;;;;;;5052314;28;20096;-66
2022/12/26 10:58:34;;;;;;;32.70;22.52;;;8.20;99.90;;;;;;5052159;28;20120;-66
2022/12/26 11:01:28;;;;;;;31.13;21.58;;;8.30;99.90;;;;;;5052291;28;20060;-66
2022/12/26 11:03:55;;;;;;;29.65;21.27;;;8.30;99.90;;;;;;5052417;28;20034;-65
2022/12/26 11:06:26;;;;;;;30.85;21.20;;;8.40;99.90;;;;;;5051594;28;20432;-65
2022/12/26 11:08:52;;;;;;;29.43;21.83;;;8.40;99.90;;;;;;5051972;28;20108;-65
2022/12/26 11:11:45;;;;;;;27.08;19.77;;;8.40;99.90;;;;;;5051805;28;20037;-66
2022/12/26 11:14:26;;;;;;;30.55;21.73;;;8.50;99.90;;;;;;5052168;28;20035;-66
2022/12/26 11:16:51;;;;;;;28.33;20.75;;;8.50;99.90;;;;;;5052213;28;20036;-65
2022/12/26 11:19:29;;;;;;;26.83;19.98;;;8.50;99.90;;;;;;5051877;28;20029;-68
2022/12/26 11:22:18;;;;;;;26.88;19.40;;;8.50;99.90;;;;;;5052095;28;20385;-65
2022/12/26 11:24:44;;;;;;;23.67;18.02;;;8.60;99.90;;;;;;5052369;28;20040;-67
2022/12/26 11:27:19;;;;;;;29.90;19.85;;;8.60;99.90;;;;;;5052244;28;20028;-65
2022/12/26 11:29:44;;;;;;;32.50;20.10;;;8.60;99.90;;;;;;5052159;28;20036;-66
2022/12/26 11:32:19;;;;;;;27.88;20.35;;;8.60;99.90;;;;;;5052225;28;20408;-66
2022/12/26 11:34:47;;;;;;;30.10;21.75;;;8.60;99.90;;;;;;5052317;28;20120;-66
2022/12/26 11:37:30;;;;;;;28.25;20.25;;;8.60;99.90;;;;;;5051966;28;20366;-66
2022/12/26 11:39:57;;;;;;;28.88;21.05;;;8.60;99.90;;;;;;5052427;28;20124;-66
2022/12/26 11:42:24;;;;;;;30.45;21.55;;;8.70;99.90;;;;;;5054979;28;20062;-66
2022/12/26 11:44:53;;;;;;;28.15;21.25;;;8.70;99.90;;;;;;5055887;28;20068;-66
2022/12/26 11:47:22;;;;;;;27.65;20.60;;;8.70;99.90;;;;;;5055515;28;20032;-66
2022/12/26 11:50:02;;;;;;;25.85;20.17;;;8.70;99.90;;;;;;5056102;28;20052;-66
2022/12/26 11:52:50;;;;;;;25.92;19.88;;;8.70;99.90;;;;;;5055578;28;20025;-68
2022/12/26 11:55:28;;;;;;;28.20;20.75;;;8.70;99.90;;;;;;5055780;28;20017;-66
2022/12/26 11:58:05;;;;;;;26.83;19.65;;;8.70;99.90;;;;;;5055757;28;20025;-66
2022/12/26 12:00:33;;;;;;;27.95;19.88;;;8.80;99.90;;;;;;5055241;28;20497;-67
2022/12/26 12:02:59;;;;;;;28.45;21.35;;;8.80;99.90;;;;;;5055697;28;20044;-66
2022/12/26 12:05:24;;;;;;;31.98;22.52;;;8.80;99.90;;;;;;5054969;28;20369;-66
2022/12/26 12:08:05;;;;;;;26.65;20.67;;;8.90;99.90;;;;;;5055426;28;20021;-66
2022/12/26 12:10:36;;;;;;;29.02;20.30;;;8.90;99.90;;;;;;5053982;28;20037;-66
2022/12/26 12:13:02;;;;;;;26.35;20.67;;;9.00;99.90;;;;;;5055336;28;20499;-66
2022/12/26 12:15:33;;;;;;;25.20;19.20;;;9.00;99.90;;;;;;5054994;28;20025;-66
2022/12/26 12:18:16;;;;;;;27.08;20.02;;;9.00;99.90;;;;;;5055586;28;20029;-66
2022/12/26 12:21:17;;;;;;;28.45;21.15;;;9.00;99.90;;;;;;5054971;28;20047;-66
2022/12/26 12:24:07;;;;;;;28.63;21.05;;;9.00;99.90;;;;;;5012778;28;20038;-66
2022/12/26 12:26:32;;;;;;;32.75;22.27;;;9.10;99.90;;;;;;5053091;28;20120;-66
2022/12/26 12:29:35;;;;;;;29.60;20.77;;;9.10;99.90;;;;;;5055290;28;20052;-66
2022/12/26 12:32:12;;;;;;;28.08;20.98;;;9.20;99.90;;;;;;5055102;28;20029;-66
2022/12/26 12:35:02;;;;;;;27.33;20.95;;;9.20;99.90;;;;;;5054724;28;20021;-67
2022/12/26 12:37:34;;;;;;;27.15;20.00;;;9.20;99.90;;;;;;5054006;28;20044;-68
2022/12/26 12:40:32;;;;;;;27.95;20.30;;;9.30;99.90;;;;;;5054914;28;20338;-66
2022/12/26 12:43:26;;;;;;;30.98;21.10;;;9.40;99.90;;;;;;5049510;28;20068;-66
2022/12/26 12:45:57;;;;;;;27.45;19.98;;;9.40;99.90;;;;;;5054901;28;20025;-66
2022/12/26 12:48:29;;;;;;;26.10;19.77;;;9.40;99.90;;;;;;5054343;28;20075;-70
2022/12/26 12:51:08;;;;;;;27.13;19.88;;;9.40;99.90;;;;;;5054691;28;20117;-67
2022/12/26 12:53:50;;;;;;;21.17;15.98;;;9.40;99.90;;;;;;5052886;28;20025;-66
2022/12/26 12:56:16;;;;;;;20.73;16.92;;;9.50;99.90;;;;;;5054638;28;20063;-66
2022/12/26 12:58:52;;;;;;;20.67;16.48;;;9.50;99.90;;;;;;5054057;28;20108;-66
2022/12/26 13:01:23;;;;;;;20.60;16.33;;;9.50;99.90;;;;;;5054448;28;20033;-66
2022/12/26 13:04:04;;;;;;;20.58;16.80;;;9.50;99.90;;;;;;5054084;28;20060;-67
2022/12/26 13:06:41;;;;;;;21.58;16.15;;;9.50;99.90;;;;;;5054046;28;20025;-67
2022/12/26 13:09:12;;;;;;;22.23;17.02;;;9.50;99.90;;;;;;5054523;28;20112;-67
2022/12/26 13:11:45;;;;;;;21.35;17.65;;;9.50;99.90;;;;;;5053643;28;20398;-67
2022/12/26 13:14:18;;;;;;;24.00;17.10;;;9.50;99.90;;;;;;5054317;28;20029;-67
2022/12/26 13:16:59;;;;;;;20.55;15.93;;;9.50;99.90;;;;;;5052480;28;20360;-67
2022/12/26 13:19:27;;;;;;;;;;;9.50;99.90;;;;;;5054423;28;20025;-67
2022/12/26 13:22:01;;;;;;;22.00;17.67;;;9.50;99.90;;;;;;5054221;28;19909;-67
2022/12/26 13:24:40;;;;;;;21.75;17.20;;;9.50;99.90;;;;;;5053818;28;20036;-67
2022/12/26 13:27:13;;;;;;;22.58;17.75;;;9.50;99.90;;;;;;5054066;28;20051;-66
2022/12/26 13:29:44;;;;;;;24.27;17.50;;;9.50;99.90;;;;;;5054115;28;20123;-67
2022/12/26 13:32:15;;;;;;;23.42;18.75;;;9.50;99.90;;;;;;5054184;28;20389;-67
2022/12/26 13:34:43;;;;;;;22.52;17.98;;;9.40;99.90;;;;;;5053635;28;20024;-67
2022/12/26 13:37:38;;;;;;;21.77;16.77;;;9.40;99.90;;;;;;5053716;28;20033;-67
2022/12/26 13:40:26;;;;;;;23.27;17.65;;;9.40;99.90;;;;;;5054098;28;20469;-67
2022/12/26 13:46:02;;;;;;;23.42;18.30;;;9.40;99.90;;;;;;5053482;28;20102;-67
2022/12/26 13:48:31;;;;;;;26.42;18.85;;;9.40;99.90;;;;;;5053386;28;20458;-68
2022/12/26 13:51:00;;;;;;;23.23;18.27;;;9.40;99.90;;;;;;5053844;28;20036;-67
2022/12/26 13:53:25;;;;;;;25.23;19.02;;;9.40;99.90;;;;;;5053616;28;20064;-67
2022/12/26 13:55:51;;;;;;;24.13;19.15;;;9.40;99.90;;;;;;5053271;28;20056;-65
2022/12/26 13:58:44;;;;;;;25.15;19.25;;;9.40;99.90;;;;;;5053506;28;20032;-66
2022/12/26 14:01:34;;;;;;;24.10;18.15;;;9.40;99.90;;;;;;5053637;28;20115;-66
2022/12/26 14:03:59;;;;;;;23.42;18.52;;;9.40;99.90;;;;;;5052703;28;20496;-66
2022/12/26 14:06:48;;;;;;;27.83;19.48;;;9.40;99.90;;;;;;5053102;28;20025;-65
2022/12/26 14:09:29;;;;;;;23.35;17.95;;;9.40;99.90;;;;;;5053744;28;20354;-66
2022/12/26 14:12:10;;;;;;;25.67;19.23;;;9.40;99.90;;;;;;5052923;28;20033;-66
2022/12/26 14:14:41;;;;;;;25.10;18.33;;;9.30;99.90;;;;;;5052861;28;20075;-66
2022/12/26 14:17:25;;;;;;;25.83;19.02;;;9.30;99.90;;;;;;5053301;28;20462;-67
2022/12/26 14:20:11;;;;;;;22.25;18.40;;;9.30;99.90;;;;;;5052856;28;20044;-66
2022/12/26 14:22:51;;;;;;;22.90;18.92;;;9.30;99.90;;;;;;5052775;28;20045;-66
2022/12/26 14:25:22;;;;;;;24.08;18.48;;;9.30;99.90;;;;;;5053258;28;20016;-66
2022/12/26 14:28:16;;;;;;;27.33;20.27;;;9.30;99.90;;;;;;5052879;28;20366;-66
2022/12/26 14:31:12;;;;;;;23.02;18.05;;;9.30;99.90;;;;;;5052686;28;20040;-66
2022/12/26 14:33:44;;;;;;;23.27;17.65;;;9.30;99.90;;;;;;5052795;28;20109;-67
2022/12/26 14:36:24;;;;;;;30.20;19.90;;;9.20;99.90;;;;;;5052609;28;20111;-66
2022/12/26 14:39:22;;;;;;;24.00;18.77;;;9.30;99.90;;;;;;5052754;28;20213;-66
2022/12/26 14:44:56;;;;;;;22.05;17.98;;;9.20;99.90;;;;;;5052359;28;20336;-66
2022/12/26 14:47:40;;;;;;;24.80;18.42;;;9.20;99.90;;;;;;5052247;28;20108;-66
2022/12/26 14:50:31;;;;;;;25.52;18.60;;;9.10;99.90;;;;;;5052899;28;20346;-66
2022/12/26 14:53:23;;;;;;;25.20;19.03;;;9.10;99.90;;;;;;5052126;28;20344;-66
2022/12/26 14:55:52;;;;;;;22.98;18.33;;;9.10;99.90;;;;;;5051236;28;20037;-67
2022/12/26 14:58:43;;;;;;;24.45;19.48;;;9.10;99.90;;;;;;5052479;28;20035;-67
2022/12/26 15:01:12;;;;;;;24.85;18.80;;;9.00;99.90;;;;;;5053582;28;20453;-67
2022/12/26 15:03:54;;;;;;;27.20;19.38;;;9.00;99.90;;;;;;5053636;28;20036;-67
2022/12/26 15:06:32;;;;;;;24.20;17.98;;;9.00;99.90;;;;;;5054714;28;20170;-67
2022/12/26 15:09:07;;;;;;;25.35;19.63;;;8.90;99.90;;;;;;5054274;28;20074;-66